sensor_id;sensor_type;location;lat;lon;timestamp;temperature;humidity
7784;DHT22;19359;51.402;6.778;2023-05-07T00:02:15;15.00;99.90
7784;DHT22;19359;51.402;6.778;2023-05-07T00:04:42;15.00;99.90
7784;DHT22;19359;51.402;6.778;2023-05-07T00:07:09;15.00;99.90
7784;DHT22;19359;51.402;6.778;2023-05-07T00:09:36;15.10;99.90
7784;DHT22;19359;51.402;6.778;2023-05-07T00:12:04;15.00;99.90
7784;DHT22;19359;51.402;6.778;2023-05-07T00:16:58;15.10;99.90
7784;DHT22;19359;51.402;6.778;2023-05-07T00:19:25;15.00;99.90
7784;DHT22;19359;51.402;6.778;2023-05-07T00:21:52;15.00;99.90
7784;DHT22;19359;51.402;6.778;2023-05-07T00:29:15;14.90;99.90
7784;DHT22;19359;51.402;6.778;2023-05-07T00:34:09;14.70;99.90
7784;DHT22;19359;51.402;6.778;2023-05-07T00:36:36;14.70;99.90
7784;DHT22;19359;51.402;6.778;2023-05-07T00:39:02;14.80;99.90
7784;DHT22;19359;51.402;6.778;2023-05-07T00:41:30;14.80;99.90
7784;DHT22;19359;51.402;6.778;2023-05-07T00:43:57;14.50;99.90
7784;DHT22;19359;51.402;6.778;2023-05-07T00:46:25;14.70;99.90
7784;DHT22;19359;51.402;6.778;2023-05-07T00:48:52;14.40;99.90
7784;DHT22;19359;51.402;6.778;2023-05-07T00:53:47;14.50;99.90
7784;DHT22;19359;51.402;6.778;2023-05-07T00:56:13;14.60;99.90
7784;DHT22;19359;51.402;6.778;2023-05-07T00:58:41;14.40;99.90
7784;DHT22;19359;51.402;6.778;2023-05-07T01:01:07;14.30;99.90
7784;DHT22;19359;51.402;6.778;2023-05-07T01:03:35;14.20;99.90
7784;DHT22;19359;51.402;6.778;2023-05-07T01:06:03;14.30;99.90
7784;DHT22;19359;51.402;6.778;2023-05-07T01:08:31;14.30;99.90
7784;DHT22;19359;51.402;6.778;2023-05-07T01:11:00;14.20;99.90
7784;DHT22;19359;51.402;6.778;2023-05-07T01:13:27;14.10;99.90
7784;DHT22;19359;51.402;6.778;2023-05-07T01:15:54;14.30;99.90
7784;DHT22;19359;51.402;6.778;2023-05-07T01:18:21;14.20;99.90
7784;DHT22;19359;51.402;6.778;2023-05-07T01:20:49;14.10;99.90
7784;DHT22;19359;51.402;6.778;2023-05-07T01:23:18;14.10;99.90
7784;DHT22;19359;51.402;6.778;2023-05-07T01:25:51;14.20;99.90
7784;DHT22;19359;51.402;6.778;2023-05-07T01:28:18;14.10;99.90
7784;DHT22;19359;51.402;6.778;2023-05-07T01:30:46;13.90;99.90
7784;DHT22;19359;51.402;6.778;2023-05-07T01:33:15;13.90;99.90
7784;DHT22;19359;51.402;6.778;2023-05-07T01:35:48;14.00;99.90
7784;DHT22;19359;51.402;6.778;2023-05-07T01:38:17;14.00;99.90
7784;DHT22;19359;51.402;6.778;2023-05-07T01:40:44;14.30;99.90
7784;DHT22;19359;51.402;6.778;2023-05-07T01:43:12;14.00;99.90
7784;DHT22;19359;51.402;6.778;2023-05-07T01:45:39;14.00;99.90
7784;DHT22;19359;51.402;6.778;2023-05-07T01:48:07;14.00;99.90
7784;DHT22;19359;51.402;6.778;2023-05-07T01:50:35;13.80;99.90
7784;DHT22;19359;51.402;6.778;2023-05-07T01:53:02;14.00;99.90
7784;DHT22;19359;51.402;6.778;2023-05-07T01:55:30;13.80;99.90
7784;DHT22;19359;51.402;6.778;2023-05-07T01:57:57;13.90;99.90
7784;DHT22;19359;51.402;6.778;2023-05-07T02:00:24;13.70;99.90
7784;DHT22;19359;51.402;6.778;2023-05-07T02:02:50;13.90;99.90
7784;DHT22;19359;51.402;6.778;2023-05-07T02:05:18;13.90;99.90
7784;DHT22;19359;51.402;6.778;2023-05-07T02:07:45;13.90;99.90
7784;DHT22;19359;51.402;6.778;2023-05-07T02:10:11;13.90;99.90
7784;DHT22;19359;51.402;6.778;2023-05-07T02:12:39;13.60;99.90
7784;DHT22;19359;51.402;6.778;2023-05-07T02:15:07;13.80;99.90
7784;DHT22;19359;51.402;6.778;2023-05-07T02:17:34;13.70;99.90
7784;DHT22;19359;51.402;6.778;2023-05-07T02:20:03;13.90;99.90
7784;DHT22;19359;51.402;6.778;2023-05-07T02:24:57;13.70;99.90
7784;DHT22;19359;51.402;6.778;2023-05-07T02:27:23;13.90;99.90
7784;DHT22;19359;51.402;6.778;2023-05-07T02:29:52;13.80;99.90
7784;DHT22;19359;51.402;6.778;2023-05-07T02:32:18;13.80;99.90
7784;DHT22;19359;51.402;6.778;2023-05-07T02:34:45;13.60;99.90
7784;DHT22;19359;51.402;6.778;2023-05-07T02:39:39;13.60;99.90
7784;DHT22;19359;51.402;6.778;2023-05-07T02:42:06;13.70;99.90
7784;DHT22;19359;51.402;6.778;2023-05-07T02:44:32;13.60;99.90
7784;DHT22;19359;51.402;6.778;2023-05-07T02:47:02;13.60;99.90
7784;DHT22;19359;51.402;6.778;2023-05-07T02:49:29;13.60;99.90
7784;DHT22;19359;51.402;6.778;2023-05-07T02:54:22;13.40;99.90
7784;DHT22;19359;51.402;6.778;2023-05-07T02:56:49;13.60;99.90
7784;DHT22;19359;51.402;6.778;2023-05-07T02:59:16;13.60;99.90
7784;DHT22;19359;51.402;6.778;2023-05-07T03:04:12;13.50;99.90
7784;DHT22;19359;51.402;6.778;2023-05-07T03:09:05;13.50;99.90
7784;DHT22;19359;51.402;6.778;2023-05-07T03:14:01;13.50;99.90
7784;DHT22;19359;51.402;6.778;2023-05-07T03:16:27;13.50;99.90
7784;DHT22;19359;51.402;6.778;2023-05-07T03:21:22;13.40;99.90
7784;DHT22;19359;51.402;6.778;2023-05-07T03:23:49;13.40;99.90
7784;DHT22;19359;51.402;6.778;2023-05-07T03:26:16;13.50;99.90
7784;DHT22;19359;51.402;6.778;2023-05-07T03:31:10;13.40;99.90
7784;DHT22;19359;51.402;6.778;2023-05-07T03:33:47;13.50;99.90
7784;DHT22;19359;51.402;6.778;2023-05-07T03:38:43;13.40;99.90
7784;DHT22;19359;51.402;6.778;2023-05-07T03:41:11;13.60;99.90
7784;DHT22;19359;51.402;6.778;2023-05-07T03:43:38;13.50;99.90
7784;DHT22;19359;51.402;6.778;2023-05-07T03:46:05;13.40;99.90
7784;DHT22;19359;51.402;6.778;2023-05-07T03:48:31;13.30;99.90
7784;DHT22;19359;51.402;6.778;2023-05-07T03:50:59;13.40;99.90
7784;DHT22;19359;51.402;6.778;2023-05-07T03:53:25;13.40;99.90
7784;DHT22;19359;51.402;6.778;2023-05-07T03:55:53;13.20;99.90
7784;DHT22;19359;51.402;6.778;2023-05-07T03:58:20;13.40;99.90
7784;DHT22;19359;51.402;6.778;2023-05-07T04:00:47;13.60;99.90
7784;DHT22;19359;51.402;6.778;2023-05-07T04:03:14;13.50;99.90
7784;DHT22;19359;51.402;6.778;2023-05-07T04:05:40;13.40;99.90
7784;DHT22;19359;51.402;6.778;2023-05-07T04:08:07;13.40;99.90
7784;DHT22;19359;51.402;6.778;2023-05-07T04:10:34;13.60;99.90
7784;DHT22;19359;51.402;6.778;2023-05-07T04:13:02;13.50;99.90
7784;DHT22;19359;51.402;6.778;2023-05-07T04:20:23;13.60;99.90
7784;DHT22;19359;51.402;6.778;2023-05-07T04:22:50;13.30;99.90
7784;DHT22;19359;51.402;6.778;2023-05-07T04:25:16;13.60;99.90
7784;DHT22;19359;51.402;6.778;2023-05-07T04:30:13;14.00;99.90
7784;DHT22;19359;51.402;6.778;2023-05-07T04:32:40;13.60;99.90
7784;DHT22;19359;51.402;6.778;2023-05-07T04:37:34;14.00;99.90
7784;DHT22;19359;51.402;6.778;2023-05-07T04:40:01;13.60;99.90
7784;DHT22;19359;51.402;6.778;2023-05-07T04:42:28;13.80;99.90
7784;DHT22;19359;51.402;6.778;2023-05-07T04:44:55;13.80;99.90
7784;DHT22;19359;51.402;6.778;2023-05-07T04:47:23;13.80;99.90
7784;DHT22;19359;51.402;6.778;2023-05-07T04:49:50;13.80;99.90
7784;DHT22;19359;51.402;6.778;2023-05-07T04:52:16;13.80;99.90
7784;DHT22;19359;51.402;6.778;2023-05-07T04:54:43;13.80;99.90
7784;DHT22;19359;51.402;6.778;2023-05-07T04:57:10;13.70;99.90
7784;DHT22;19359;51.402;6.778;2023-05-07T04:59:36;14.00;99.90
7784;DHT22;19359;51.402;6.778;2023-05-07T05:02:03;13.70;99.90
7784;DHT22;19359;51.402;6.778;2023-05-07T05:04:32;14.00;99.90
7784;DHT22;19359;51.402;6.778;2023-05-07T05:09:26;14.20;99.90
7784;DHT22;19359;51.402;6.778;2023-05-07T05:11:52;14.30;99.90
7784;DHT22;19359;51.402;6.778;2023-05-07T05:14:20;14.30;99.90
7784;DHT22;19359;51.402;6.778;2023-05-07T05:16:47;14.80;99.90
7784;DHT22;19359;51.402;6.778;2023-05-07T05:19:13;14.60;99.90
7784;DHT22;19359;51.402;6.778;2023-05-07T05:26:35;14.70;99.90
7784;DHT22;19359;51.402;6.778;2023-05-07T05:29:02;14.60;99.90
7784;DHT22;19359;51.402;6.778;2023-05-07T05:31:29;14.80;99.90
7784;DHT22;19359;51.402;6.778;2023-05-07T05:33:56;14.70;99.90
7784;DHT22;19359;51.402;6.778;2023-05-07T05:36:22;14.80;99.90
7784;DHT22;19359;51.402;6.778;2023-05-07T05:38:50;14.90;99.90
7784;DHT22;19359;51.402;6.778;2023-05-07T05:41:17;14.90;99.90
7784;DHT22;19359;51.402;6.778;2023-05-07T05:48:38;15.10;99.90
7784;DHT22;19359;51.402;6.778;2023-05-07T05:51:05;15.10;99.90
7784;DHT22;19359;51.402;6.778;2023-05-07T05:56:00;15.40;99.90
7784;DHT22;19359;51.402;6.778;2023-05-07T05:58:27;15.60;99.90
7784;DHT22;19359;51.402;6.778;2023-05-07T06:00:54;15.80;99.90
7784;DHT22;19359;51.402;6.778;2023-05-07T06:05:48;15.80;99.90
7784;DHT22;19359;51.402;6.778;2023-05-07T06:08:15;15.80;99.90
7784;DHT22;19359;51.402;6.778;2023-05-07T06:10:42;16.00;99.90
7784;DHT22;19359;51.402;6.778;2023-05-07T06:13:10;16.00;99.90
7784;DHT22;19359;51.402;6.778;2023-05-07T06:15:37;16.10;99.90
7784;DHT22;19359;51.402;6.778;2023-05-07T06:23:01;16.20;99.90
7784;DHT22;19359;51.402;6.778;2023-05-07T06:30:23;16.20;99.90
7784;DHT22;19359;51.402;6.778;2023-05-07T06:35:17;16.30;99.90
7784;DHT22;19359;51.402;6.778;2023-05-07T06:37:44;16.30;94.00
7784;DHT22;19359;51.402;6.778;2023-05-07T06:42:38;16.60;99.90
7784;DHT22;19359;51.402;6.778;2023-05-07T06:45:07;16.90;99.90
7784;DHT22;19359;51.402;6.778;2023-05-07T06:47:35;16.60;99.90
7784;DHT22;19359;51.402;6.778;2023-05-07T06:52:29;16.80;99.90
7784;DHT22;19359;51.402;6.778;2023-05-07T06:54:55;16.90;96.40
7784;DHT22;19359;51.402;6.778;2023-05-07T06:57:22;16.90;96.50
7784;DHT22;19359;51.402;6.778;2023-05-07T06:59:49;17.00;94.20
7784;DHT22;19359;51.402;6.778;2023-05-07T07:02:16;17.00;92.10
7784;DHT22;19359;51.402;6.778;2023-05-07T07:04:44;17.20;88.00
7784;DHT22;19359;51.402;6.778;2023-05-07T07:07:10;17.30;86.10
7784;DHT22;19359;51.402;6.778;2023-05-07T07:09:37;17.40;85.90
7784;DHT22;19359;51.402;6.778;2023-05-07T07:14:31;17.50;83.00
7784;DHT22;19359;51.402;6.778;2023-05-07T07:16:58;17.60;85.40
7784;DHT22;19359;51.402;6.778;2023-05-07T07:19:27;17.40;50.80
7784;DHT22;19359;51.402;6.778;2023-05-07T07:21:55;17.60;91.70
7784;DHT22;19359;51.402;6.778;2023-05-07T07:24:21;17.50;84.50
7784;DHT22;19359;51.402;6.778;2023-05-07T07:26:48;17.40;74.60
7784;DHT22;19359;51.402;6.778;2023-05-07T07:29:15;17.70;71.40
7784;DHT22;19359;51.402;6.778;2023-05-07T07:31:44;17.80;74.90
7784;DHT22;19359;51.402;6.778;2023-05-07T07:34:11;17.80;72.90
7784;DHT22;19359;51.402;6.778;2023-05-07T07:41:33;18.00;64.60
7784;DHT22;19359;51.402;6.778;2023-05-07T07:44:00;18.10;57.60
7784;DHT22;19359;51.402;6.778;2023-05-07T07:46:29;18.20;50.20
7784;DHT22;19359;51.402;6.778;2023-05-07T07:51:24;18.40;38.30
7784;DHT22;19359;51.402;6.778;2023-05-07T07:53:52;18.50;41.30
7784;DHT22;19359;51.402;6.778;2023-05-07T07:56:20;18.80;38.40
7784;DHT22;19359;51.402;6.778;2023-05-07T07:58:47;19.10;36.30
7784;DHT22;19359;51.402;6.778;2023-05-07T08:03:42;19.50;30.00
7784;DHT22;19359;51.402;6.778;2023-05-07T08:06:09;19.70;23.60
7784;DHT22;19359;51.402;6.778;2023-05-07T08:13:31;20.50;1.00
7784;DHT22;19359;51.402;6.778;2023-05-07T08:18:25;20.50;1.00
7784;DHT22;19359;51.402;6.778;2023-05-07T08:28:16;20.70;1.00
7784;DHT22;19359;51.402;6.778;2023-05-07T08:30:44;20.50;1.00
7784;DHT22;19359;51.402;6.778;2023-05-07T08:33:12;20.50;1.00
7784;DHT22;19359;51.402;6.778;2023-05-07T08:40:37;20.60;1.00
7784;DHT22;19359;51.402;6.778;2023-05-07T08:45:33;20.60;1.00
7784;DHT22;19359;51.402;6.778;2023-05-07T08:48:03;20.70;1.00
7784;DHT22;19359;51.402;6.778;2023-05-07T08:55:28;20.90;1.00
7784;DHT22;19359;51.402;6.778;2023-05-07T08:57:55;21.00;1.00
7784;DHT22;19359;51.402;6.778;2023-05-07T09:00:22;21.10;1.00
7784;DHT22;19359;51.402;6.778;2023-05-07T09:05:18;21.10;1.00
7784;DHT22;19359;51.402;6.778;2023-05-07T09:07:45;21.10;1.00
7784;DHT22;19359;51.402;6.778;2023-05-07T09:10:12;21.30;1.00
7784;DHT22;19359;51.402;6.778;2023-05-07T09:12:39;21.40;1.00
7784;DHT22;19359;51.402;6.778;2023-05-07T09:15:07;21.50;1.00
7784;DHT22;19359;51.402;6.778;2023-05-07T09:17:34;21.60;1.00
7784;DHT22;19359;51.402;6.778;2023-05-07T09:20:03;21.90;1.00
7784;DHT22;19359;51.402;6.778;2023-05-07T09:22:32;22.20;1.00
7784;DHT22;19359;51.402;6.778;2023-05-07T09:24:59;22.30;1.00
7784;DHT22;19359;51.402;6.778;2023-05-07T09:37:15;22.60;1.00
7784;DHT22;19359;51.402;6.778;2023-05-07T09:39:44;22.70;1.00
7784;DHT22;19359;51.402;6.778;2023-05-07T09:42:12;22.70;1.00
7784;DHT22;19359;51.402;6.778;2023-05-07T09:49:36;23.30;1.00
7784;DHT22;19359;51.402;6.778;2023-05-07T09:52:04;23.40;1.00
7784;DHT22;19359;51.402;6.778;2023-05-07T09:54:34;23.40;1.00
7784;DHT22;19359;51.402;6.778;2023-05-07T09:57:05;23.40;1.00
7784;DHT22;19359;51.402;6.778;2023-05-07T09:59:33;23.50;1.00
7784;DHT22;19359;51.402;6.778;2023-05-07T10:02:01;23.60;1.00
7784;DHT22;19359;51.402;6.778;2023-05-07T10:04:30;23.70;1.00
7784;DHT22;19359;51.402;6.778;2023-05-07T10:06:58;23.80;1.00
7784;DHT22;19359;51.402;6.778;2023-05-07T10:09:26;24.30;1.00
7784;DHT22;19359;51.402;6.778;2023-05-07T10:11:54;24.40;1.00
7784;DHT22;19359;51.402;6.778;2023-05-07T10:14:22;24.20;1.00
7784;DHT22;19359;51.402;6.778;2023-05-07T10:19:17;24.20;1.00
7784;DHT22;19359;51.402;6.778;2023-05-07T10:21:51;24.40;1.00
7784;DHT22;19359;51.402;6.778;2023-05-07T10:24:25;24.40;1.00
7784;DHT22;19359;51.402;6.778;2023-05-07T10:26:53;24.20;1.00
7784;DHT22;19359;51.402;6.778;2023-05-07T10:29:32;24.10;1.00
7784;DHT22;19359;51.402;6.778;2023-05-07T10:32:10;23.90;1.00
7784;DHT22;19359;51.402;6.778;2023-05-07T10:34:43;24.00;1.00
7784;DHT22;19359;51.402;6.778;2023-05-07T10:37:11;24.00;1.00
7784;DHT22;19359;51.402;6.778;2023-05-07T10:39:38;24.10;1.00
7784;DHT22;19359;51.402;6.778;2023-05-07T10:42:09;24.20;1.00
7784;DHT22;19359;51.402;6.778;2023-05-07T10:44:37;24.40;1.00
7784;DHT22;19359;51.402;6.778;2023-05-07T10:47:08;24.60;1.00
7784;DHT22;19359;51.402;6.778;2023-05-07T10:49:36;24.50;1.00
7784;DHT22;19359;51.402;6.778;2023-05-07T10:52:15;24.60;1.00
7784;DHT22;19359;51.402;6.778;2023-05-07T10:54:42;24.70;1.00
7784;DHT22;19359;51.402;6.778;2023-05-07T10:57:32;24.70;1.00
7784;DHT22;19359;51.402;6.778;2023-05-07T11:00:00;24.60;1.00
7784;DHT22;19359;51.402;6.778;2023-05-07T11:05:24;24.10;1.00
7784;DHT22;19359;51.402;6.778;2023-05-07T11:07:54;24.10;1.00
7784;DHT22;19359;51.402;6.778;2023-05-07T11:10:21;23.90;1.00
7784;DHT22;19359;51.402;6.778;2023-05-07T11:12:53;23.80;1.00
7784;DHT22;19359;51.402;6.778;2023-05-07T11:15:40;23.90;1.00
7784;DHT22;19359;51.402;6.778;2023-05-07T11:18:09;24.10;1.00
7784;DHT22;19359;51.402;6.778;2023-05-07T11:20:50;24.20;1.00
7784;DHT22;19359;51.402;6.778;2023-05-07T11:26:44;24.20;1.00
7784;DHT22;19359;51.402;6.778;2023-05-07T11:29:12;24.10;1.00
7784;DHT22;19359;51.402;6.778;2023-05-07T11:31:41;23.90;1.00
7784;DHT22;19359;51.402;6.778;2023-05-07T11:34:08;24.00;1.00
7784;DHT22;19359;51.402;6.778;2023-05-07T11:36:37;23.90;1.00
7784;DHT22;19359;51.402;6.778;2023-05-07T11:39:27;23.50;1.00
7784;DHT22;19359;51.402;6.778;2023-05-07T11:41:54;23.30;1.00
7784;DHT22;19359;51.402;6.778;2023-05-07T11:46:49;23.40;1.00
7784;DHT22;19359;51.402;6.778;2023-05-07T11:49:16;23.40;1.00
7784;DHT22;19359;51.402;6.778;2023-05-07T11:51:43;23.50;1.00
7784;DHT22;19359;51.402;6.778;2023-05-07T12:01:35;22.70;1.00
7784;DHT22;19359;51.402;6.778;2023-05-07T12:04:04;22.70;1.00
7784;DHT22;19359;51.402;6.778;2023-05-07T12:06:35;22.60;1.00
7784;DHT22;19359;51.402;6.778;2023-05-07T12:09:02;22.50;1.00
7784;DHT22;19359;51.402;6.778;2023-05-07T12:16:23;22.50;1.00
7784;DHT22;19359;51.402;6.778;2023-05-07T12:18:50;22.50;1.00
7784;DHT22;19359;51.402;6.778;2023-05-07T12:21:19;22.60;1.00
7784;DHT22;19359;51.402;6.778;2023-05-07T12:23:46;22.70;1.00
7784;DHT22;19359;51.402;6.778;2023-05-07T12:28:40;22.70;1.00
7784;DHT22;19359;51.402;6.778;2023-05-07T12:31:07;22.80;1.00
7784;DHT22;19359;51.402;6.778;2023-05-07T12:33:36;22.90;1.00
7784;DHT22;19359;51.402;6.778;2023-05-07T12:36:05;23.00;1.00
7784;DHT22;19359;51.402;6.778;2023-05-07T12:38:37;22.90;1.00
7784;DHT22;19359;51.402;6.778;2023-05-07T12:41:06;22.80;1.00
7784;DHT22;19359;51.402;6.778;2023-05-07T12:46:01;22.60;1.00
7784;DHT22;19359;51.402;6.778;2023-05-07T12:48:29;22.40;1.00
7784;DHT22;19359;51.402;6.778;2023-05-07T12:50:57;22.30;1.00
7784;DHT22;19359;51.402;6.778;2023-05-07T12:53:25;22.30;1.00
7784;DHT22;19359;51.402;6.778;2023-05-07T12:55:55;22.30;1.00
7784;DHT22;19359;51.402;6.778;2023-05-07T12:58:25;22.30;1.00
7784;DHT22;19359;51.402;6.778;2023-05-07T13:03:23;22.30;1.00
7784;DHT22;19359;51.402;6.778;2023-05-07T13:05:51;22.30;1.00
7784;DHT22;19359;51.402;6.778;2023-05-07T13:08:29;22.30;1.00
7784;DHT22;19359;51.402;6.778;2023-05-07T13:10:59;22.30;1.00
7784;DHT22;19359;51.402;6.778;2023-05-07T13:13:28;22.30;1.00
7784;DHT22;19359;51.402;6.778;2023-05-07T13:15:55;22.20;1.00
7784;DHT22;19359;51.402;6.778;2023-05-07T13:20:49;22.30;1.00
7784;DHT22;19359;51.402;6.778;2023-05-07T13:25:43;21.80;1.00
7784;DHT22;19359;51.402;6.778;2023-05-07T13:28:11;21.80;1.00
7784;DHT22;19359;51.402;6.778;2023-05-07T13:30:39;21.60;1.00
7784;DHT22;19359;51.402;6.778;2023-05-07T13:42:57;21.00;1.00
7784;DHT22;19359;51.402;6.778;2023-05-07T13:45:26;20.90;1.00
7784;DHT22;19359;51.402;6.778;2023-05-07T13:47:55;20.80;1.00
7784;DHT22;19359;51.402;6.778;2023-05-07T13:55:17;20.60;1.00
7784;DHT22;19359;51.402;6.778;2023-05-07T13:57:44;20.50;1.00
7784;DHT22;19359;51.402;6.778;2023-05-07T14:00:12;20.40;11.00
7784;DHT22;19359;51.402;6.778;2023-05-07T14:05:08;20.20;16.90
7784;DHT22;19359;51.402;6.778;2023-05-07T14:10:03;20.00;25.50
7784;DHT22;19359;51.402;6.778;2023-05-07T14:12:31;20.10;15.10
7784;DHT22;19359;51.402;6.778;2023-05-07T14:19:54;19.60;23.90
7784;DHT22;19359;51.402;6.778;2023-05-07T14:22:21;19.60;40.00
7784;DHT22;19359;51.402;6.778;2023-05-07T14:24:48;19.50;55.40
7784;DHT22;19359;51.402;6.778;2023-05-07T14:27:15;19.30;42.60
7784;DHT22;19359;51.402;6.778;2023-05-07T14:29:42;19.30;65.60
7784;DHT22;19359;51.402;6.778;2023-05-07T14:34:38;19.20;90.00
7784;DHT22;19359;51.402;6.778;2023-05-07T14:37:06;19.20;91.60
7784;DHT22;19359;51.402;6.778;2023-05-07T14:39:33;19.20;95.30
7784;DHT22;19359;51.402;6.778;2023-05-07T14:44:26;19.00;92.20
7784;DHT22;19359;51.402;6.778;2023-05-07T14:46:53;18.80;93.90
7784;DHT22;19359;51.402;6.778;2023-05-07T14:54:16;18.70;99.80
7784;DHT22;19359;51.402;6.778;2023-05-07T15:01:37;19.00;93.80
7784;DHT22;19359;51.402;6.778;2023-05-07T15:08:59;19.00;93.70
7784;DHT22;19359;51.402;6.778;2023-05-07T15:11:28;19.00;94.00
7784;DHT22;19359;51.402;6.778;2023-05-07T15:16:22;19.10;98.10
7784;DHT22;19359;51.402;6.778;2023-05-07T15:18:48;19.00;99.90
7784;DHT22;19359;51.402;6.778;2023-05-07T15:21:15;19.10;90.50
7784;DHT22;19359;51.402;6.778;2023-05-07T15:26:09;19.20;99.90
7784;DHT22;19359;51.402;6.778;2023-05-07T15:28:38;19.20;99.90
7784;DHT22;19359;51.402;6.778;2023-05-07T15:31:04;19.10;99.90
7784;DHT22;19359;51.402;6.778;2023-05-07T15:33:32;19.10;97.40
7784;DHT22;19359;51.402;6.778;2023-05-07T15:35:59;19.20;99.40
7784;DHT22;19359;51.402;6.778;2023-05-07T15:40:53;19.40;95.70
7784;DHT22;19359;51.402;6.778;2023-05-07T15:45:48;19.40;99.90
7784;DHT22;19359;51.402;6.778;2023-05-07T15:48:15;19.40;92.10
7784;DHT22;19359;51.402;6.778;2023-05-07T15:50:42;19.50;89.60
7784;DHT22;19359;51.402;6.778;2023-05-07T15:53:08;19.60;88.10
7784;DHT22;19359;51.402;6.778;2023-05-07T15:58:05;19.70;97.70
7784;DHT22;19359;51.402;6.778;2023-05-07T16:00:32;20.00;94.80
7784;DHT22;19359;51.402;6.778;2023-05-07T16:05:29;19.80;94.90
7784;DHT22;19359;51.402;6.778;2023-05-07T16:07:56;19.90;94.30
7784;DHT22;19359;51.402;6.778;2023-05-07T16:12:52;19.40;92.70
7784;DHT22;19359;51.402;6.778;2023-05-07T16:15:18;19.60;93.60
7784;DHT22;19359;51.402;6.778;2023-05-07T16:17:45;19.60;83.30
7784;DHT22;19359;51.402;6.778;2023-05-07T16:20:14;19.50;97.70
7784;DHT22;19359;51.402;6.778;2023-05-07T16:22:44;19.50;98.00
7784;DHT22;19359;51.402;6.778;2023-05-07T16:27:39;19.50;99.90
7784;DHT22;19359;51.402;6.778;2023-05-07T16:30:07;19.60;98.70
7784;DHT22;19359;51.402;6.778;2023-05-07T16:35:01;19.50;99.90
7784;DHT22;19359;51.402;6.778;2023-05-07T16:37:31;19.10;99.90
7784;DHT22;19359;51.402;6.778;2023-05-07T16:39:59;19.40;82.30
7784;DHT22;19359;51.402;6.778;2023-05-07T16:42:26;19.50;99.90
7784;DHT22;19359;51.402;6.778;2023-05-07T16:47:21;19.40;99.90
7784;DHT22;19359;51.402;6.778;2023-05-07T16:49:47;19.40;85.50
7784;DHT22;19359;51.402;6.778;2023-05-07T16:52:14;19.40;94.80
7784;DHT22;19359;51.402;6.778;2023-05-07T16:54:42;19.50;79.10
7784;DHT22;19359;51.402;6.778;2023-05-07T16:59:36;19.50;90.90
7784;DHT22;19359;51.402;6.778;2023-05-07T17:04:30;19.40;76.30
7784;DHT22;19359;51.402;6.778;2023-05-07T17:09:24;19.40;98.40
7784;DHT22;19359;51.402;6.778;2023-05-07T17:11:52;19.40;89.50
7784;DHT22;19359;51.402;6.778;2023-05-07T17:19:13;19.30;83.60
7784;DHT22;19359;51.402;6.778;2023-05-07T17:21:40;19.30;95.60
7784;DHT22;19359;51.402;6.778;2023-05-07T17:24:07;19.40;99.00
7784;DHT22;19359;51.402;6.778;2023-05-07T17:26:34;19.30;98.70
7784;DHT22;19359;51.402;6.778;2023-05-07T17:29:03;19.20;99.90
7784;DHT22;19359;51.402;6.778;2023-05-07T17:33:57;18.90;99.90
7784;DHT22;19359;51.402;6.778;2023-05-07T17:36:24;19.00;92.40
7784;DHT22;19359;51.402;6.778;2023-05-07T17:38:51;18.90;91.90
7784;DHT22;19359;51.402;6.778;2023-05-07T17:41:17;18.90;99.90
7784;DHT22;19359;51.402;6.778;2023-05-07T17:43:45;18.80;97.50
7784;DHT22;19359;51.402;6.778;2023-05-07T17:46:13;18.60;99.90
7784;DHT22;19359;51.402;6.778;2023-05-07T17:48:39;18.70;99.90
7784;DHT22;19359;51.402;6.778;2023-05-07T17:58:27;18.50;99.90
7784;DHT22;19359;51.402;6.778;2023-05-07T18:00:54;18.40;99.90
7784;DHT22;19359;51.402;6.778;2023-05-07T18:03:22;18.40;99.90
7784;DHT22;19359;51.402;6.778;2023-05-07T18:05:49;18.30;99.90
7784;DHT22;19359;51.402;6.778;2023-05-07T18:10:43;18.20;99.90
7784;DHT22;19359;51.402;6.778;2023-05-07T18:13:10;18.20;99.90
7784;DHT22;19359;51.402;6.778;2023-05-07T18:15:37;18.30;99.90
7784;DHT22;19359;51.402;6.778;2023-05-07T18:18:04;18.20;99.90
7784;DHT22;19359;51.402;6.778;2023-05-07T18:20:32;18.30;99.90
7784;DHT22;19359;51.402;6.778;2023-05-07T18:22:59;18.30;98.80
7784;DHT22;19359;51.402;6.778;2023-05-07T18:25:26;18.20;99.00
7784;DHT22;19359;51.402;6.778;2023-05-07T18:30:20;18.00;99.90
7784;DHT22;19359;51.402;6.778;2023-05-07T18:32:47;18.10;99.90
7784;DHT22;19359;51.402;6.778;2023-05-07T18:37:43;18.10;99.90
7784;DHT22;19359;51.402;6.778;2023-05-07T18:40:10;18.00;99.90
7784;DHT22;19359;51.402;6.778;2023-05-07T18:42:37;18.00;99.90
7784;DHT22;19359;51.402;6.778;2023-05-07T18:45:05;17.90;99.90
7784;DHT22;19359;51.402;6.778;2023-05-07T18:49:59;18.00;99.90
7784;DHT22;19359;51.402;6.778;2023-05-07T18:52:25;18.00;99.90
7784;DHT22;19359;51.402;6.778;2023-05-07T18:54:54;17.90;99.90
7784;DHT22;19359;51.402;6.778;2023-05-07T18:59:51;17.70;99.90
7784;DHT22;19359;51.402;6.778;2023-05-07T19:02:18;17.50;99.90
7784;DHT22;19359;51.402;6.778;2023-05-07T19:04:45;17.60;99.90
7784;DHT22;19359;51.402;6.778;2023-05-07T19:12:07;17.40;99.90
7784;DHT22;19359;51.402;6.778;2023-05-07T19:17:01;17.30;99.90
7784;DHT22;19359;51.402;6.778;2023-05-07T19:19:27;17.20;99.90
7784;DHT22;19359;51.402;6.778;2023-05-07T19:21:54;17.20;99.90
7784;DHT22;19359;51.402;6.778;2023-05-07T19:24:21;17.20;99.90
7784;DHT22;19359;51.402;6.778;2023-05-07T19:26:48;17.20;99.90
7784;DHT22;19359;51.402;6.778;2023-05-07T19:29:16;17.30;99.90
7784;DHT22;19359;51.402;6.778;2023-05-07T19:31:43;17.20;99.90
7784;DHT22;19359;51.402;6.778;2023-05-07T19:34:10;17.10;99.90
7784;DHT22;19359;51.402;6.778;2023-05-07T19:36:38;17.10;99.90
7784;DHT22;19359;51.402;6.778;2023-05-07T19:39:05;17.10;99.90
7784;DHT22;19359;51.402;6.778;2023-05-07T19:41:31;17.10;99.90
7784;DHT22;19359;51.402;6.778;2023-05-07T19:46:26;17.20;99.90
7784;DHT22;19359;51.402;6.778;2023-05-07T19:48:53;17.10;99.90
7784;DHT22;19359;51.402;6.778;2023-05-07T19:51:20;17.00;99.90
7784;DHT22;19359;51.402;6.778;2023-05-07T19:53:47;17.00;99.90
7784;DHT22;19359;51.402;6.778;2023-05-07T19:58:41;16.70;99.90
7784;DHT22;19359;51.402;6.778;2023-05-07T20:01:08;17.00;99.90
7784;DHT22;19359;51.402;6.778;2023-05-07T20:03:36;16.90;99.90
7784;DHT22;19359;51.402;6.778;2023-05-07T20:06:03;16.70;99.90
7784;DHT22;19359;51.402;6.778;2023-05-07T20:08:29;16.80;99.90
7784;DHT22;19359;51.402;6.778;2023-05-07T20:10:57;16.90;99.90
7784;DHT22;19359;51.402;6.778;2023-05-07T20:13:24;16.80;99.90
7784;DHT22;19359;51.402;6.778;2023-05-07T20:15:56;16.70;99.90
7784;DHT22;19359;51.402;6.778;2023-05-07T20:18:23;16.60;99.90
7784;DHT22;19359;51.402;6.778;2023-05-07T20:20:51;16.70;99.90
7784;DHT22;19359;51.402;6.778;2023-05-07T20:23:18;16.60;99.90
7784;DHT22;19359;51.402;6.778;2023-05-07T20:25:45;16.50;99.90
7784;DHT22;19359;51.402;6.778;2023-05-07T20:28:12;16.50;99.90
7784;DHT22;19359;51.402;6.778;2023-05-07T20:30:39;16.50;99.90
7784;DHT22;19359;51.402;6.778;2023-05-07T20:33:05;16.80;99.90
7784;DHT22;19359;51.402;6.778;2023-05-07T20:35:32;16.50;99.90
7784;DHT22;19359;51.402;6.778;2023-05-07T20:40:27;16.60;99.90
7784;DHT22;19359;51.402;6.778;2023-05-07T20:42:56;16.60;99.90